Time;durP1;ratioP1;P1;durP2;ratioP2;P2;SDS_P1;SDS_P2;PMS_P1;PMS_P2;Temp;Humidity;BMP_temperature;BMP_pressure;BME280_temperature;BME280_humidity;BME280_pressure;Samples;Min_cycle;Max_cycle;Signal;HPM_P1;HPM_P2
2022/09/26 00:01:52;;;;;;;3.90;3.70;;;;;;;;;;5072771;28;20447;-60
2022/09/26 00:04:20;;;;;;;3.67;3.47;;;;;;;;;;5072713;28;20447;-60
2022/09/26 00:06:47;;;;;;;4.80;4.37;;;;;;;;;;5072546;28;20903;-60
2022/09/26 00:09:15;;;;;;;3.30;3.10;;;;;;;;;;5072537;28;20539;-60
2022/09/26 00:11:43;;;;;;;3.80;3.57;;;;;;;;;;5072406;28;20450;-60
2022/09/26 00:14:13;;;;;;;3.33;2.93;;;;;;;;;;5073177;28;20479;-60
2022/09/26 00:16:40;;;;;;;4.00;3.73;;;;;;;;;;5076684;28;20459;-60
2022/09/26 00:19:07;;;;;;;3.53;3.23;;;;;;;;;;5076507;28;20447;-59
2022/09/26 00:21:34;;;;;;;3.83;3.53;;;;;;;;;;5076159;28;20470;-60
2022/09/26 00:24:02;;;;;;;2.97;2.70;;;;;;;;;;5076305;28;20810;-60
2022/09/26 00:26:30;;;;;;;4.17;3.80;;;;;;;;;;5076125;28;20479;-60
2022/09/26 00:28:57;;;;;;;3.07;2.87;;;;;;;;;;5076146;28;20942;-60
2022/09/26 00:31:29;;;;;;;3.03;2.83;;;;;;;;;;5076265;28;20451;-60
2022/09/26 00:33:56;;;;;;;3.80;3.53;;;;;;;;;;5076221;28;20449;-60
2022/09/26 00:36:23;;;;;;;3.20;2.90;;;;;;;;;;5076099;28;20538;-60
2022/09/26 00:38:50;;;;;;;3.30;3.00;;;;;;;;;;5075925;28;20454;-60
2022/09/26 00:41:17;;;;;;;3.57;3.23;;;;;;;;;;5076168;28;20444;-60
2022/09/26 00:43:45;;;;;;;3.10;2.90;;;;;;;;;;5076056;28;20443;-60
2022/09/26 00:46:21;;;;;;;3.00;2.80;;;;;;;;;;5075893;28;20489;-60
2022/09/26 00:48:51;;;;;;;3.80;3.03;;;;;;;;;;5075952;28;20470;-60
2022/09/26 00:51:18;;;;;;;5.27;3.97;;;;;;;;;;5075811;28;20455;-60
2022/09/26 00:53:49;;;;;;;3.07;2.87;;;;;;;;;;5075931;28;20455;-61
2022/09/26 00:56:17;;;;;;;3.20;3.00;;;;;;;;;;5075887;28;20538;-60
2022/09/26 00:58:46;;;;;;;3.10;2.90;;;;;;;;;;5075738;28;20454;-60
2022/09/26 01:01:14;;;;;;;3.70;3.40;;;;;;;;;;5075601;28;20451;-60
2022/09/26 01:03:42;;;;;;;3.83;3.53;;;;;;;;;;5075513;28;20959;-61
2022/09/26 01:06:11;;;;;;;3.93;3.00;;;;;;;;;;5075423;28;20479;-60
2022/09/26 01:08:40;;;;;;;3.37;3.17;;;;;;;;;;5075620;28;20448;-60
2022/09/26 01:11:08;;;;;;;3.30;3.00;;;;;;;;;;5075556;28;20538;-60
2022/09/26 01:13:36;;;;;;;3.50;3.27;;;;;;;;;;5075456;28;20451;-60
2022/09/26 01:16:03;;;;;;;3.33;3.03;;;;;;;;;;5075463;28;20466;-59
2022/09/26 01:18:31;;;;;;;3.50;3.07;;;;;;;;;;5075251;28;20454;-60
2022/09/26 01:21:01;;;;;;;5.03;2.80;;;;;;;;;;5075256;28;20471;-60
2022/09/26 01:23:42;;;;;;;8.50;3.20;;;;;;;;;;5075390;28;20451;-59
2022/09/26 01:26:28;;;;;;;2.90;2.70;;;;;;;;;;5074627;28;20485;-59
2022/09/26 01:29:10;;;;;;;3.27;2.13;;;;;;;;;;5075125;28;20954;-60
2022/09/26 01:31:42;;;;;;;3.17;2.90;;;;;;;;;;5075279;28;20447;-60
2022/09/26 01:34:32;;;;;;;2.60;2.40;;;;;;;;;;5074908;28;20454;-60
2022/09/26 01:37:04;;;;;;;2.93;2.73;;;;;;;;;;5075043;28;20455;-59
2022/09/26 01:39:38;;;;;;;3.60;2.30;;;;;;;;;;5074905;28;20452;-59
2022/09/26 01:42:10;;;;;;;3.20;2.90;;;;;;;;;;5074913;28;20950;-59
2022/09/26 01:44:42;;;;;;;4.00;2.63;;;;;;;;;;5074974;28;20806;-59
2022/09/26 01:47:14;;;;;;;2.80;2.30;;;;;;;;;;5074832;28;20578;-59
2022/09/26 01:49:45;;;;;;;2.70;2.03;;;;;;;;;;5074732;28;20451;-59
2022/09/26 01:52:16;;;;;;;2.60;2.03;;;;;;;;;;5074879;28;20455;-59
2022/09/26 01:54:45;;;;;;;2.20;2.10;;;;;;;;;;5074829;28;20451;-59
2022/09/26 01:57:14;;;;;;;3.93;2.40;;;;;;;;;;5074702;28;20451;-59
2022/09/26 01:59:42;;;;;;;2.97;2.50;;;;;;;;;;5074537;28;20535;-59
2022/09/26 02:02:13;;;;;;;2.60;2.50;;;;;;;;;;5074411;28;20448;-60
2022/09/26 02:04:43;;;;;;;4.97;2.50;;;;;;;;;;5074684;28;20453;-59
2022/09/26 02:07:12;;;;;;;4.60;2.20;;;;;;;;;;5074517;28;20487;-59
2022/09/26 02:09:41;;;;;;;2.70;2.50;;;;;;;;;;5074429;28;20448;-59
2022/09/26 02:12:09;;;;;;;4.63;2.40;;;;;;;;;;5074346;28;20459;-59
2022/09/26 02:14:37;;;;;;;3.17;2.80;;;;;;;;;;5074162;28;20470;-59
2022/09/26 02:17:06;;;;;;;3.40;2.00;;;;;;;;;;5074384;28;20858;-59
2022/09/26 02:19:36;;;;;;;6.33;2.33;;;;;;;;;;5074174;28;20455;-59
2022/09/26 02:22:05;;;;;;;3.27;2.23;;;;;;;;;;5073970;28;20557;-59
2022/09/26 02:24:31;;;;;;;4.67;2.00;;;;;;;;;;5074092;28;20447;-59
2022/09/26 02:26:58;;;;;;;2.87;1.90;;;;;;;;;;5073862;28;21016;-59
2022/09/26 02:29:26;;;;;;;5.93;2.10;;;;;;;;;;5074112;28;20451;-59
2022/09/26 02:31:55;;;;;;;3.80;2.37;;;;;;;;;;5074062;28;20454;-60
2022/09/26 02:34:22;;;;;;;3.10;2.07;;;;;;;;;;5073913;28;20444;-60
2022/09/26 02:36:49;;;;;;;5.83;2.40;;;;;;;;;;5073009;28;20888;-59
2022/09/26 02:39:17;;;;;;;2.73;2.37;;;;;;;;;;5073790;28;20479;-59
2022/09/26 02:41:48;;;;;;;2.20;1.97;;;;;;;;;;5073508;28;20972;-59
2022/09/26 02:44:23;;;;;;;2.57;2.37;;;;;;;;;;5073927;28;20477;-59
2022/09/26 02:47:03;;;;;;;2.67;2.07;;;;;;;;;;5073645;28;20482;-60
2022/09/26 02:49:44;;;;;;;2.33;1.93;;;;;;;;;;5073618;28;20451;-59
2022/09/26 02:52:18;;;;;;;4.07;1.80;;;;;;;;;;5073538;28;20455;-59
2022/09/26 02:54:53;;;;;;;2.50;2.13;;;;;;;;;;5073687;28;20504;-59
2022/09/26 02:57:24;;;;;;;6.03;2.40;;;;;;;;;;5073607;28;20542;-59
2022/09/26 02:59:57;;;;;;;5.37;2.20;;;;;;;;;;5073473;28;20444;-59
2022/09/26 03:02:27;;;;;;;3.10;2.10;;;;;;;;;;5073335;28;20458;-59
2022/09/26 03:04:58;;;;;;;3.13;2.40;;;;;;;;;;5073408;28;20452;-59
2022/09/26 03:07:27;;;;;;;2.13;1.93;;;;;;;;;;5073312;28;20536;-59
2022/09/26 03:09:56;;;;;;;2.53;2.43;;;;;;;;;;5073252;28;20806;-60
2022/09/26 03:12:25;;;;;;;6.87;2.80;;;;;;;;;;5073195;28;20815;-60
2022/09/26 03:14:53;;;;;;;5.13;2.30;;;;;;;;;;5073147;28;20542;-60
2022/09/26 03:17:21;;;;;;;2.40;2.30;;;;;;;;;;5072999;28;20454;-60
2022/09/26 03:19:50;;;;;;;2.90;2.00;;;;;;;;;;5073266;28;20458;-62
2022/09/26 03:22:17;;;;;;;3.77;2.50;;;;;;;;;;5073018;28;20804;-60
2022/09/26 03:24:45;;;;;;;2.93;2.63;;;;;;;;;;5073447;28;20447;-60
2022/09/26 03:27:14;;;;;;;2.33;2.00;;;;;;;;;;5072899;28;20486;-59
2022/09/26 03:29:42;;;;;;;3.30;2.70;;;;;;;;;;5072779;28;20470;-60
2022/09/26 03:32:09;;;;;;;3.33;2.80;;;;;;;;;;5073104;28;20505;-59
2022/09/26 03:34:38;;;;;;;3.30;2.80;;;;;;;;;;5073016;28;20522;-59
2022/09/26 03:37:05;;;;;;;3.03;2.47;;;;;;;;;;5072938;28;20530;-60
2022/09/26 03:39:32;;;;;;;3.43;3.00;;;;;;;;;;5072861;28;20548;-60
2022/09/26 03:42:00;;;;;;;3.43;3.20;;;;;;;;;;5072763;28;21018;-59
2022/09/26 03:44:29;;;;;;;2.90;2.70;;;;;;;;;;5073181;28;20500;-59
2022/09/26 03:46:56;;;;;;;3.10;2.80;;;;;;;;;;5072756;28;20522;-60
2022/09/26 03:49:22;;;;;;;3.33;3.03;;;;;;;;;;5072267;28;20474;-60
2022/09/26 03:51:50;;;;;;;3.43;2.63;;;;;;;;;;5072514;28;20875;-60
2022/09/26 03:54:17;;;;;;;3.00;2.80;;;;;;;;;;5072594;28;20444;-59
2022/09/26 03:56:44;;;;;;;4.30;2.70;;;;;;;;;;5072424;28;20814;-60
2022/09/26 03:59:11;;;;;;;2.90;2.70;;;;;;;;;;5072778;28;20811;-60
2022/09/26 04:01:40;;;;;;;3.43;3.13;;;;;;;;;;5072801;28;20451;-60
2022/09/26 04:04:07;;;;;;;3.53;2.73;;;;;;;;;;5072613;28;20483;-60
2022/09/26 04:06:34;;;;;;;3.00;2.80;;;;;;;;;;5072534;28;20475;-60
2022/09/26 04:09:01;;;;;;;2.90;2.70;;;;;;;;;;5072604;28;20447;-59
2022/09/26 04:11:28;;;;;;;2.60;2.40;;;;;;;;;;5072406;28;20546;-60
2022/09/26 04:13:55;;;;;;;2.97;2.73;;;;;;;;;;5072666;28;20811;-60
2022/09/26 04:16:22;;;;;;;3.63;3.10;;;;;;;;;;5072606;28;20542;-60
2022/09/26 04:18:55;;;;;;;4.90;2.60;;;;;;;;;;5072479;28;20542;-60
2022/09/26 04:21:22;;;;;;;4.30;3.03;;;;;;;;;;5072297;28;20506;-60
2022/09/26 04:23:49;;;;;;;9.70;2.97;;;;;;;;;;5072340;28;20481;-60
2022/09/26 04:26:17;;;;;;;5.53;2.57;;;;;;;;;;5072288;28;20479;-60
2022/09/26 04:28:46;;;;;;;3.13;2.93;;;;;;;;;;5072310;28;20455;-60
2022/09/26 04:31:13;;;;;;;4.70;3.50;;;;;;;;;;5072349;28;21052;-60
2022/09/26 04:33:40;;;;;;;4.10;3.60;;;;;;;;;;5072112;28;20443;-60
2022/09/26 04:36:09;;;;;;;4.33;3.20;;;;;;;;;;5072171;28;20448;-60
2022/09/26 04:38:36;;;;;;;5.93;3.27;;;;;;;;;;5071982;28;20447;-60
2022/09/26 04:41:03;;;;;;;8.03;3.13;;;;;;;;;;5072218;28;20451;-60
2022/09/26 04:43:30;;;;;;;5.60;3.63;;;;;;;;;;5072148;28;20447;-59
2022/09/26 04:45:57;;;;;;;3.33;3.00;;;;;;;;;;5072018;28;20478;-59
2022/09/26 04:48:24;;;;;;;3.43;3.13;;;;;;;;;;5071942;28;20479;-60
2022/09/26 04:50:51;;;;;;;5.37;3.20;;;;;;;;;;5071682;28;20488;-60
2022/09/26 04:53:19;;;;;;;5.10;3.07;;;;;;;;;;5071780;28;20799;-60
2022/09/26 04:55:47;;;;;;;6.20;3.00;;;;;;;;;;5072066;28;20861;-60
2022/09/26 04:58:15;;;;;;;3.60;3.40;;;;;;;;;;5072043;28;20447;-59
2022/09/26 05:00:44;;;;;;;4.00;3.50;;;;;;;;;;5073161;28;20446;-60
2022/09/26 05:03:11;;;;;;;5.50;3.10;;;;;;;;;;5075410;28;20949;-59
2022/09/26 05:05:39;;;;;;;3.70;3.33;;;;;;;;;;5075320;28;20503;-60
2022/09/26 05:08:06;;;;;;;4.53;3.30;;;;;;;;;;5075434;28;20483;-60
2022/09/26 05:10:34;;;;;;;4.73;3.73;;;;;;;;;;5075346;28;20538;-60
2022/09/26 05:13:02;;;;;;;4.27;2.93;;;;;;;;;;5075394;28;20492;-60
2022/09/26 05:15:29;;;;;;;3.43;3.10;;;;;;;;;;5075292;28;20862;-59
2022/09/26 05:17:56;;;;;;;5.60;3.40;;;;;;;;;;5075056;28;20566;-59
2022/09/26 05:20:27;;;;;;;5.50;4.27;;;;;;;;;;5075054;28;20811;-60
2022/09/26 05:22:56;;;;;;;5.67;3.37;;;;;;;;;;5074914;28;20538;-59
2022/09/26 05:28:09;;;;;;;4.00;3.67;;;;;;;;;;5074861;28;20478;-59
2022/09/26 05:30:36;;;;;;;5.53;3.77;;;;;;;;;;5074755;28;20447;-60
2022/09/26 05:33:03;;;;;;;3.40;3.20;;;;;;;;;;5074942;28;20489;-59
2022/09/26 05:35:33;;;;;;;4.37;3.33;;;;;;;;;;5074712;28;20447;-59
2022/09/26 05:38:01;;;;;;;3.90;3.60;;;;;;;;;;5075235;28;20790;-59
2022/09/26 05:43:13;;;;;;;4.17;3.37;;;;;;;;;;5074608;28;20419;-59
2022/09/26 05:45:41;;;;;;;3.00;2.63;;;;;;;;;;5074778;28;20451;-59
2022/09/26 05:48:09;;;;;;;3.33;3.03;;;;;;;;;;5074830;28;20483;-59
2022/09/26 05:50:36;;;;;;;5.30;3.37;;;;;;;;;;5074683;28;20811;-60
2022/09/26 05:53:03;;;;;;;3.80;3.40;;;;;;;;;;5074561;28;20447;-60
2022/09/26 05:55:30;;;;;;;4.17;3.80;;;;;;;;;;5074348;28;20530;-59
2022/09/26 05:57:58;;;;;;;4.30;3.20;;;;;;;;;;5074516;28;20455;-60
2022/09/26 06:00:26;;;;;;;3.50;3.20;;;;;;;;;;5074527;28;20447;-59
2022/09/26 06:02:57;;;;;;;3.20;3.00;;;;;;;;;;5074195;28;20942;-59
2022/09/26 06:05:24;;;;;;;4.63;3.70;;;;;;;;;;5074284;28;20487;-59
2022/09/26 06:07:51;;;;;;;3.53;3.23;;;;;;;;;;5074146;28;20475;-60
2022/09/26 06:10:18;;;;;;;2.77;2.57;;;;;;;;;;5074118;28;20487;-59
2022/09/26 06:12:45;;;;;;;4.10;3.33;;;;;;;;;;5074256;28;20542;-59
2022/09/26 06:15:13;;;;;;;7.40;3.87;;;;;;;;;;5074244;28;20538;-60
2022/09/26 06:17:42;;;;;;;4.30;3.10;;;;;;;;;;5074175;28;20955;-59
2022/09/26 06:20:09;;;;;;;4.17;3.00;;;;;;;;;;5074261;28;20509;-59
2022/09/26 06:22:39;;;;;;;4.30;3.10;;;;;;;;;;5073685;28;20489;-59
2022/09/26 06:25:07;;;;;;;9.17;3.47;;;;;;;;;;5074150;28;20447;-60
2022/09/26 06:27:37;;;;;;;3.67;3.27;;;;;;;;;;5073970;28;20486;-59
2022/09/26 06:30:04;;;;;;;5.07;3.77;;;;;;;;;;5074057;28;20451;-59
2022/09/26 06:32:31;;;;;;;8.40;3.90;;;;;;;;;;5073814;28;20447;-60
2022/09/26 06:34:59;;;;;;;4.37;3.97;;;;;;;;;;5073734;28;20448;-60
2022/09/26 06:37:27;;;;;;;3.77;3.40;;;;;;;;;;5073601;28;20512;-59
2022/09/26 06:39:54;;;;;;;3.57;3.37;;;;;;;;;;5073833;28;20444;-59
2022/09/26 06:42:21;;;;;;;3.47;3.23;;;;;;;;;;5073769;28;20792;-60
2022/09/26 06:44:48;;;;;;;17.73;5.90;;;;;;;;;;5073471;28;20443;-59
2022/09/26 06:47:15;;;;;;;5.10;3.60;;;;;;;;;;5073329;28;20510;-59
2022/09/26 06:49:44;;;;;;;4.70;2.57;;;;;;;;;;5073293;28;20455;-59
2022/09/26 06:52:12;;;;;;;5.10;3.10;;;;;;;;;;5073544;28;20539;-60
2022/09/26 06:54:40;;;;;;;3.67;3.30;;;;;;;;;;5073499;28;20456;-59
2022/09/26 06:57:06;;;;;;;3.70;2.93;;;;;;;;;;5073397;28;20525;-59
2022/09/26 06:59:33;;;;;;;5.30;3.03;;;;;;;;;;5073284;28;21155;-59
2022/09/26 07:02:00;;;;;;;8.47;3.20;;;;;;;;;;5073075;28;20447;-61
2022/09/26 07:04:28;;;;;;;3.50;2.90;;;;;;;;;;5073292;28;20447;-59
2022/09/26 07:06:55;;;;;;;3.73;2.53;;;;;;;;;;5073143;28;20447;-59
2022/09/26 07:09:23;;;;;;;2.77;2.53;;;;;;;;;;5073254;28;20784;-59
2022/09/26 07:11:50;;;;;;;3.77;2.60;;;;;;;;;;5073052;28;20454;-59
2022/09/26 07:14:17;;;;;;;6.37;2.67;;;;;;;;;;5072930;28;20473;-59
2022/09/26 07:16:44;;;;;;;3.00;2.80;;;;;;;;;;5072962;28;20451;-60
2022/09/26 07:19:12;;;;;;;2.80;2.53;;;;;;;;;;5073095;28;20455;-60
2022/09/26 07:21:39;;;;;;;2.83;2.40;;;;;;;;;;5072791;28;20477;-59
2022/09/26 07:24:06;;;;;;;2.83;2.70;;;;;;;;;;5072048;28;20448;-59
2022/09/26 07:26:35;;;;;;;4.13;3.30;;;;;;;;;;5072523;28;20450;-59
2022/09/26 07:29:02;;;;;;;2.60;2.40;;;;;;;;;;5072100;28;20568;-59
2022/09/26 07:31:29;;;;;;;4.13;2.87;;;;;;;;;;5066120;28;20467;-60
2022/09/26 07:33:56;;;;;;;3.87;2.47;;;;;;;;;;5067527;28;20801;-60
2022/09/26 07:36:23;;;;;;;6.43;3.53;;;;;;;;;;5072431;28;20539;-58
2022/09/26 07:38:50;;;;;;;6.63;3.20;;;;;;;;;;5065845;28;20551;-60
2022/09/26 07:41:18;;;;;;;3.80;2.87;;;;;;;;;;5062049;28;20448;-60
2022/09/26 07:43:46;;;;;;;3.03;2.70;;;;;;;;;;5070321;28;20455;-60
2022/09/26 07:51:42;;;;;;;4.17;3.77;;;;;;;;;;5068180;28;20446;-59
2022/09/26 07:54:09;;;;;;;5.37;3.97;;;;;;;;;;5061954;28;20471;-60
2022/09/26 07:56:37;;;;;;;6.57;3.90;;;;;;;;;;5058155;28;20455;-58
2022/09/26 07:59:05;;;;;;;5.50;3.80;;;;;;;;;;5069166;28;20451;-59
2022/09/26 08:01:33;;;;;;;4.70;4.23;;;;;;;;;;5071288;28;20448;-60
2022/09/26 08:04:00;;;;;;;4.90;4.40;;;;;;;;;;5062375;28;21006;-60
2022/09/26 08:06:27;;;;;;;6.90;5.73;;;;;;;;;;5068139;28;20451;-59
2022/09/26 08:08:54;;;;;;;5.60;5.00;;;;;;;;;;5069831;28;20475;-57
2022/09/26 08:11:22;;;;;;;6.40;5.80;;;;;;;;;;5065894;28;20546;-59
2022/09/26 08:13:49;;;;;;;5.43;4.90;;;;;;;;;;5073425;28;20534;-62
2022/09/26 08:16:22;;;;;;;7.67;5.53;;;;;;;;;;5075917;28;20466;-59
2022/09/26 08:18:49;;;;;;;5.57;5.00;;;;;;;;;;5062790;28;20460;-60
2022/09/26 08:21:16;;;;;;;6.67;4.77;;;;;;;;;;5051900;28;20476;-62
2022/09/26 08:23:43;;;;;;;6.13;4.10;;;;;;;;;;5063431;28;20448;-61
2022/09/26 08:26:11;;;;;;;4.80;3.70;;;;;;;;;;5071328;28;20900;-68
2022/09/26 08:28:38;;;;;;;3.87;3.57;;;;;;;;;;5052370;28;20480;-65
2022/09/26 08:31:06;;;;;;;3.40;3.20;;;;;;;;;;5051908;28;20452;-61
2022/09/26 08:33:36;;;;;;;6.07;2.70;;;;;;;;;;5059104;28;20451;-58
2022/09/26 08:36:03;;;;;;;4.20;3.30;;;;;;;;;;5072622;28;20944;-58
2022/09/26 08:38:30;;;;;;;7.27;3.27;;;;;;;;;;5055901;28;20537;-57
2022/09/26 08:41:01;;;;;;;3.60;3.30;;;;;;;;;;5069603;28;20854;-56
2022/09/26 08:43:37;;;;;;;4.70;3.60;;;;;;;;;;5071921;28;20930;-59
2022/09/26 08:46:31;;;;;;;7.37;3.20;;;;;;;;;;5075483;28;20439;-59
2022/09/26 08:49:13;;;;;;;4.40;3.10;;;;;;;;;;5064386;28;20819;-55
2022/09/26 08:51:41;;;;;;;5.43;3.80;;;;;;;;;;5068895;28;20454;-59
2022/09/26 08:54:11;;;;;;;6.57;3.10;;;;;;;;;;5073915;28;20815;-58
2022/09/26 08:56:41;;;;;;;3.50;2.83;;;;;;;;;;5075494;28;20454;-58
2022/09/26 08:59:12;;;;;;;3.63;2.73;;;;;;;;;;5075348;28;20538;-57
2022/09/26 09:01:41;;;;;;;5.50;3.60;;;;;;;;;;5075048;28;20465;-58
2022/09/26 09:04:13;;;;;;;2.23;1.93;;;;;;;;;;5063790;28;20452;-58
2022/09/26 09:06:40;;;;;;;10.27;2.30;;;;;;;;;;5073274;28;20505;-58
2022/09/26 09:09:07;;;;;;;3.50;2.60;;;;;;;;;;5074234;28;20457;-58
2022/09/26 09:11:42;;;;;;;5.50;2.60;;;;;;;;;;5073395;28;20616;-58
2022/09/26 09:14:14;;;;;;;5.33;2.40;;;;;;;;;;5066139;28;20456;-58
2022/09/26 09:16:50;;;;;;;3.97;2.40;;;;;;;;;;5075489;28;20810;-60
2022/09/26 09:19:24;;;;;;;2.03;1.93;;;;;;;;;;5072548;28;20488;-62
2022/09/26 09:21:58;;;;;;;2.33;1.97;;;;;;;;;;5072213;28;20471;-62
2022/09/26 09:24:28;;;;;;;4.13;1.87;;;;;;;;;;5072031;28;20456;-62
2022/09/26 09:27:04;;;;;;;1.53;1.43;;;;;;;;;;5073709;28;20828;-62
2022/09/26 09:29:41;;;;;;;5.77;2.20;;;;;;;;;;5068580;28;20570;-57
2022/09/26 09:32:11;;;;;;;3.30;1.60;;;;;;;;;;5071963;28;20439;-57
2022/09/26 09:34:41;;;;;;;2.17;1.80;;;;;;;;;;5069938;28;20455;-59
2022/09/26 09:37:11;;;;;;;2.23;1.60;;;;;;;;;;5068412;28;20951;-61
2022/09/26 09:39:40;;;;;;;3.40;1.73;;;;;;;;;;5054498;28;20825;-59
2022/09/26 09:42:12;;;;;;;1.87;1.77;;;;;;;;;;5067264;28;20943;-58
2022/09/26 09:44:42;;;;;;;2.70;1.53;;;;;;;;;;5073663;28;20950;-58
2022/09/26 09:47:13;;;;;;;1.73;1.40;;;;;;;;;;5064335;28;20457;-59
2022/09/26 09:49:42;;;;;;;2.10;1.57;;;;;;;;;;5057885;28;20496;-59
2022/09/26 09:52:13;;;;;;;2.00;1.50;;;;;;;;;;5075249;28;20460;-59
2022/09/26 09:54:44;;;;;;;5.20;1.27;;;;;;;;;;5073206;28;20447;-59
2022/09/26 09:57:19;;;;;;;2.00;1.60;;;;;;;;;;5072916;28;20455;-59
2022/09/26 09:59:58;;;;;;;2.80;1.60;;;;;;;;;;5074512;28;20811;-59
2022/09/26 10:02:30;;;;;;;3.10;1.60;;;;;;;;;;5074189;28;20541;-59
2022/09/26 10:05:01;;;;;;;2.77;1.33;;;;;;;;;;5074331;28;20486;-59
2022/09/26 10:07:28;;;;;;;2.07;1.60;;;;;;;;;;5074181;28;20447;-59
2022/09/26 10:09:55;;;;;;;1.40;1.30;;;;;;;;;;5074000;28;20845;-58
2022/09/26 10:12:27;;;;;;;1.10;1.00;;;;;;;;;;5074184;28;20946;-58
2022/09/26 10:14:56;;;;;;;2.10;1.23;;;;;;;;;;5074103;28;20447;-58
2022/09/26 10:17:24;;;;;;;2.07;1.13;;;;;;;;;;5073978;28;20517;-57
2022/09/26 10:19:51;;;;;;;1.00;0.90;;;;;;;;;;5074044;28;20479;-57
2022/09/26 10:22:25;;;;;;;4.13;1.70;;;;;;;;;;5072816;28;20497;-58
2022/09/26 10:24:53;;;;;;;1.87;1.07;;;;;;;;;;5069144;28;20438;-58
2022/09/26 10:27:24;;;;;;;3.57;1.40;;;;;;;;;;5072189;28;20451;-59
2022/09/26 10:29:57;;;;;;;2.30;1.50;;;;;;;;;;5070499;28;20479;-58
2022/09/26 10:32:24;;;;;;;2.50;1.00;;;;;;;;;;5063355;28;20792;-59
2022/09/26 10:35:03;;;;;;;3.30;1.10;;;;;;;;;;5073352;28;20451;-58
2022/09/26 10:37:31;;;;;;;2.60;1.30;;;;;;;;;;5063198;28;20467;-58
2022/09/26 10:42:40;;;;;;;1.30;1.20;;;;;;;;;;5032192;28;20457;-57
2022/09/26 10:45:14;;;;;;;1.60;1.20;;;;;;;;;;5073110;28;20280;-57
2022/09/26 10:47:44;;;;;;;3.10;0.93;;;;;;;;;;5069989;28;20482;-54
2022/09/26 10:50:13;;;;;;;2.03;1.20;;;;;;;;;;5070889;28;20485;-58
2022/09/26 10:52:45;;;;;;;2.07;1.00;;;;;;;;;;5071862;28;21004;-58
2022/09/26 10:55:13;;;;;;;3.53;0.90;;;;;;;;;;5073152;28;20451;-59
2022/09/26 10:57:44;;;;;;;2.10;0.93;;;;;;;;;;5072640;28;20520;-59
2022/09/26 11:00:18;;;;;;;2.00;0.90;;;;;;;;;;5060640;28;20467;-59
2022/09/26 11:02:46;;;;;;;1.00;0.90;;;;;;;;;;5063333;28;20502;-58
2022/09/26 11:08:03;;;;;;;1.17;0.83;;;;;;;;;;5072234;28;20438;-58
2022/09/26 11:10:32;;;;;;;1.20;0.90;;;;;;;;;;5069364;28;20804;-60
2022/09/26 11:13:02;;;;;;;1.53;1.00;;;;;;;;;;5072453;28;20447;-60
2022/09/26 11:15:29;;;;;;;1.60;1.10;;;;;;;;;;5071671;28;20463;-54
2022/09/26 11:17:57;;;;;;;2.00;0.80;;;;;;;;;;5071335;28;20444;-52
2022/09/26 11:20:31;;;;;;;1.30;0.90;;;;;;;;;;5072557;28;20584;-60
2022/09/26 11:23:02;;;;;;;1.13;0.93;;;;;;;;;;5062702;28;20454;-65
2022/09/26 11:25:33;;;;;;;2.50;1.07;;;;;;;;;;5070716;28;20502;-59
2022/09/26 11:28:05;;;;;;;1.90;1.20;;;;;;;;;;5064817;28;20443;-60
2022/09/26 11:30:36;;;;;;;3.23;1.10;;;;;;;;;;5066806;28;20459;-58
2022/09/26 11:33:07;;;;;;;2.30;0.90;;;;;;;;;;5072567;28;20531;-58
2022/09/26 11:35:42;;;;;;;3.57;0.97;;;;;;;;;;5065319;28;21307;-58
2022/09/26 11:38:12;;;;;;;3.13;1.10;;;;;;;;;;5060322;28;20483;-61
2022/09/26 11:40:55;;;;;;;1.00;0.80;;;;;;;;;;5070477;28;20881;-60
2022/09/26 11:43:29;;;;;;;2.13;0.80;;;;;;;;;;5071381;28;20452;-62
2022/09/26 11:46:03;;;;;;;1.20;0.83;;;;;;;;;;5070154;28;20551;-57
2022/09/26 11:48:37;;;;;;;1.40;0.97;;;;;;;;;;5055920;28;20524;-58
2022/09/26 11:51:11;;;;;;;1.90;0.93;;;;;;;;;;5062500;28;20454;-60
2022/09/26 11:53:45;;;;;;;1.77;1.20;;;;;;;;;;5070486;28;20451;-61
2022/09/26 11:56:28;;;;;;;2.03;1.30;;;;;;;;;;5070564;28;20563;-60
2022/09/26 11:59:01;;;;;;;1.63;1.00;;;;;;;;;;5071929;28;20455;-60
2022/09/26 12:01:37;;;;;;;1.00;0.77;;;;;;;;;;5072009;28;20483;-60
2022/09/26 12:04:14;;;;;;;1.27;1.17;;;;;;;;;;5071830;28;20452;-60
2022/09/26 12:06:45;;;;;;;2.03;1.13;;;;;;;;;;5072514;28;20455;-60
2022/09/26 12:09:17;;;;;;;2.97;0.90;;;;;;;;;;5073170;28;21012;-60
2022/09/26 12:11:51;;;;;;;0.90;0.80;;;;;;;;;;5076554;28;21092;-59
2022/09/26 12:14:28;;;;;;;2.10;1.03;;;;;;;;;;5076230;28;20996;-60
2022/09/26 12:16:57;;;;;;;2.40;0.90;;;;;;;;;;5076358;28;20577;-60
2022/09/26 12:19:30;;;;;;;1.20;0.87;;;;;;;;;;5076450;28;20541;-59
2022/09/26 12:24:50;;;;;;;2.40;1.03;;;;;;;;;;5094785;28;20438;-59
2022/09/26 12:27:24;;;;;;;1.30;0.80;;;;;;;;;;5075568;28;20447;-59
2022/09/26 12:29:54;;;;;;;2.43;1.07;;;;;;;;;;5075801;28;20751;-59
2022/09/26 12:32:26;;;;;;;1.87;1.30;;;;;;;;;;5075785;28;20451;-60
2022/09/26 12:35:03;;;;;;;1.83;0.90;;;;;;;;;;5075547;28;20454;-60
2022/09/26 12:37:43;;;;;;;3.27;0.83;;;;;;;;;;5073861;28;20521;-60
2022/09/26 12:40:25;;;;;;;1.97;0.80;;;;;;;;;;5073905;28;20538;-60
2022/09/26 12:43:03;;;;;;;1.07;0.97;;;;;;;;;;5074009;28;20446;-60
2022/09/26 12:45:46;;;;;;;4.40;1.50;;;;;;;;;;5073207;28;20530;-60
2022/09/26 12:48:28;;;;;;;2.70;1.00;;;;;;;;;;5073655;28;20449;-61
2022/09/26 12:51:01;;;;;;;0.90;0.80;;;;;;;;;;5072852;28;20447;-60
2022/09/26 12:53:37;;;;;;;2.10;1.07;;;;;;;;;;5075291;28;20440;-60
2022/09/26 12:56:06;;;;;;;2.63;1.00;;;;;;;;;;5075634;28;20451;-60
2022/09/26 12:58:44;;;;;;;2.47;1.20;;;;;;;;;;5075477;28;20463;-60
2022/09/26 13:01:22;;;;;;;1.57;0.90;;;;;;;;;;5075671;28;20475;-60
2022/09/26 13:04:07;;;;;;;1.20;1.00;;;;;;;;;;5075594;28;20447;-60
2022/09/26 13:06:47;;;;;;;2.20;1.00;;;;;;;;;;5075254;28;20447;-60
2022/09/26 13:09:20;;;;;;;3.00;1.00;;;;;;;;;;5075568;28;20586;-60
2022/09/26 13:11:51;;;;;;;1.30;1.20;;;;;;;;;;5075579;28;20486;-60
2022/09/26 13:14:27;;;;;;;1.30;0.90;;;;;;;;;;5075454;28;20513;-60
2022/09/26 13:17:05;;;;;;;1.20;0.90;;;;;;;;;;5075247;28;20534;-60
2022/09/26 13:19:34;;;;;;;1.73;1.00;;;;;;;;;;5075230;28;20521;-60
2022/09/26 13:22:02;;;;;;;2.60;1.07;;;;;;;;;;5074122;28;20471;-60
2022/09/26 13:24:34;;;;;;;2.57;1.10;;;;;;;;;;5074964;28;20551;-60
2022/09/26 13:27:06;;;;;;;2.20;1.30;;;;;;;;;;5074396;28;20799;-60
2022/09/26 13:29:36;;;;;;;1.37;0.90;;;;;;;;;;5074327;28;20471;-60
2022/09/26 13:32:13;;;;;;;1.23;1.13;;;;;;;;;;5074635;28;20459;-60
2022/09/26 13:34:44;;;;;;;1.70;1.17;;;;;;;;;;5072506;28;20468;-61
2022/09/26 13:37:15;;;;;;;1.10;1.00;;;;;;;;;;5074502;28;20487;-60
2022/09/26 13:39:47;;;;;;;2.20;1.13;;;;;;;;;;5074465;28;20855;-62
2022/09/26 13:42:19;;;;;;;2.90;1.30;;;;;;;;;;5074212;28;20448;-61
2022/09/26 13:44:53;;;;;;;5.90;0.97;;;;;;;;;;5074289;28;21158;-61
2022/09/26 13:47:26;;;;;;;2.43;1.17;;;;;;;;;;5072236;28;20454;-61
2022/09/26 13:49:58;;;;;;;2.10;1.47;;;;;;;;;;5074282;28;20467;-60
2022/09/26 13:52:33;;;;;;;1.20;0.90;;;;;;;;;;5074704;28;20534;-61
2022/09/26 13:55:01;;;;;;;1.53;1.00;;;;;;;;;;5066275;28;20440;-60
2022/09/26 13:57:38;;;;;;;1.80;1.17;;;;;;;;;;5074689;28;20497;-61
2022/09/26 14:00:29;;;;;;;2.43;1.20;;;;;;;;;;5074619;28;20887;-60
2022/09/26 14:03:15;;;;;;;1.20;1.10;;;;;;;;;;5074271;28;20901;-60
2022/09/26 14:05:48;;;;;;;3.63;1.20;;;;;;;;;;5067815;28;20443;-61
2022/09/26 14:11:14;;;;;;;3.27;1.10;;;;;;;;;;5074247;28;21005;-61
2022/09/26 14:13:41;;;;;;;3.37;0.83;;;;;;;;;;5074061;28;20455;-61
2022/09/26 14:16:23;;;;;;;1.93;0.93;;;;;;;;;;5074317;28;20447;-61
2022/09/26 14:18:56;;;;;;;1.13;1.00;;;;;;;;;;5073885;28;20444;-61
2022/09/26 14:21:37;;;;;;;3.67;1.47;;;;;;;;;;5072883;28;20566;-61
2022/09/26 14:24:28;;;;;;;1.73;1.13;;;;;;;;;;5073784;28;20490;-61
2022/09/26 14:27:03;;;;;;;2.70;0.90;;;;;;;;;;5074214;28;20505;-61
2022/09/26 14:29:35;;;;;;;2.60;1.03;;;;;;;;;;5073813;28;20832;-60
2022/09/26 14:32:04;;;;;;;1.80;0.93;;;;;;;;;;5073816;28;20818;-61
2022/09/26 14:34:34;;;;;;;2.20;0.80;;;;;;;;;;5073762;28;20501;-61
2022/09/26 14:37:03;;;;;;;1.50;1.00;;;;;;;;;;5073688;28;20478;-61
2022/09/26 14:39:35;;;;;;;9.00;0.90;;;;;;;;;;5073559;28;20462;-61
2022/09/26 14:42:19;;;;;;;3.20;1.80;;;;;;;;;;5073476;28;20453;-61
2022/09/26 14:44:49;;;;;;;1.57;1.10;;;;;;;;;;5073159;28;20814;-61
2022/09/26 14:47:16;;;;;;;2.13;1.00;;;;;;;;;;5073753;28;20486;-61
2022/09/26 14:49:51;;;;;;;1.53;1.10;;;;;;;;;;5073222;28;20830;-61
2022/09/26 14:52:20;;;;;;;1.30;1.10;;;;;;;;;;5073567;28;20452;-61
2022/09/26 14:54:48;;;;;;;1.10;0.90;;;;;;;;;;5073348;28;20534;-60
2022/09/26 14:57:21;;;;;;;0.97;0.87;;;;;;;;;;5073259;28;20463;-61
2022/09/26 14:59:48;;;;;;;1.00;0.80;;;;;;;;;;5073508;28;20534;-61
2022/09/26 15:02:25;;;;;;;1.90;0.90;;;;;;;;;;5073305;28;20443;-61
2022/09/26 15:05:00;;;;;;;1.10;0.97;;;;;;;;;;5073492;28;20482;-60
2022/09/26 15:07:27;;;;;;;1.10;0.97;;;;;;;;;;5073153;28;20537;-61
2022/09/26 15:09:55;;;;;;;2.70;0.70;;;;;;;;;;5073025;28;20479;-61
2022/09/26 15:12:25;;;;;;;2.40;2.20;;;;;;;;;;5072979;28;20994;-61
2022/09/26 15:14:54;;;;;;;2.20;1.30;;;;;;;;;;5073134;28;20513;-61
2022/09/26 15:17:24;;;;;;;1.10;0.97;;;;;;;;;;5073019;28;20451;-61
2022/09/26 15:19:53;;;;;;;3.20;1.00;;;;;;;;;;5072907;28;20454;-60
2022/09/26 15:22:24;;;;;;;1.43;0.90;;;;;;;;;;5072663;28;20489;-60
2022/09/26 15:24:53;;;;;;;1.00;0.80;;;;;;;;;;5072971;28;20481;-61